• Join FlightAware (Why Join?)
  • Login
  • US Flag 
11:33PM EST


 

Airport Tracker/Info


-or-


 

Live Flight TrackerFlight Track Log ✈ DAL3688 ✈ 16-Apr-2013 ✈ KMDT - KDTW

Flight Track Log - Related Links

Times and Time Zones

All times are in EDT time to prevent confusion due to time zone crossing. See the DAL3688 flight status page for this flight to view local times or setup timezone preferences in your user account.

Time Position Orientation Groundspeed Altitude Reporting Facility
EDT Latitude Longitude Course Direction KTS MPH feet Rate Location/Type
12:30PM 40.1444 -76.7667 241° Southwest 197 227 4,200  Level New York Center
12:31PM 40.1322 -76.8472 259° West 237 273 6,400 2,280 Climbing New York Center
12:32PM 40.2864 -77.0257 294° West  Level FlightAware Approximate
12:33PM 40.2779 -77.1220 242° Southwest  Level FlightAware Approximate
12:33PM 40.1217 -76.9303 261° West 249 287 8,900  Level New York Center
12:33PM 40.1078 -77.0322 260° West 261 300 12,000 2,160 Climbing New York Center
12:34PM 40.2399 -77.2168 242° Southwest  Level FlightAware Approximate
12:34PM 40.1031 -77.1242 266° West 279 321 13,200  Level New York Center
12:35PM 40.2011 -77.3110 241° Southwest  Level FlightAware Approximate
12:36PM 40.1619 -77.4048 241° Southwest  Level FlightAware Approximate
12:36PM 40.0983 -77.2486 267° West 302 348 15,100  Level New York Center
12:38PM 40.0917 -77.4864 268° West 330 380 17,800 1,200 Climbing Cleveland Center
12:39PM 40.0847 -77.6144 266° West 345 397 18,800 1,140 Climbing Cleveland Center
12:40PM 40.0817 -77.7419 268° West 357 411 20,100 1,260 Climbing Cleveland Center
12:41PM 40.0744 -77.8725 266° West 362 417 21,400 1,320 Climbing Cleveland Center
12:42PM 40.0714 -78.0056 268° West 368 423 22,800 1,320 Climbing Cleveland Center
12:43PM 40.0636 -78.1308 265° West 368 423 24,100 1,080 Climbing Cleveland Center
12:44PM 40.0581 -78.2639 267° West 368 423 25,000 900 Climbing Cleveland Center
12:45PM 40.0525 -78.3969 267° West 368 423 25,900 660 Climbing Cleveland Center
12:46PM 40.0675 -78.5294 278° West 368 423 26,400 480 Climbing Cleveland Center
12:47PM 40.1031 -78.6586 290° West 368 423 26,900 480 Climbing Cleveland Center
12:48PM 40.1406 -78.7906 290° West 378 435 27,400 480 Climbing Cleveland Center
12:49PM 40.1781 -78.9256 290° West 384 442 27,900 300 Climbing Cleveland Center
12:50PM 40.2175 -79.0633 291° West 395 455 28,000  Climbing Cleveland Center
12:51PM 40.2569 -79.2067 290° West 405 466 28,000  Level Cleveland Center
12:52PM 40.3025 -79.3633 291° West 416 479 28,000  Level Cleveland Center
12:53PM 40.3436 -79.5072 291° West 421 484 28,000  Level Cleveland Center
12:54PM 40.3822 -79.6564 289° West 427 491 28,000  Level Cleveland Center
12:55PM 40.4231 -79.7978 291° West 427 491 28,000  Level Cleveland Center
12:56PM 40.4614 -79.9444 289° West 427 491 28,000  Level Cleveland Center
12:57PM 40.4956 -80.0753 289° West 427 491 28,000  Level Cleveland Center
12:58PM 40.5314 -80.2142 289° West 422 486 28,000  Level Cleveland Center
12:59PM 40.5736 -80.3561 291° West 422 486 28,000  Level Cleveland Center
01:00PM 40.6133 -80.5147 288° West 422 486 28,000  Level Cleveland Center
01:01PM 40.6467 -80.6542 288° West 417 480 28,000  Level Cleveland Center
01:02PM 40.6925 -80.7747 297° West 417 480 28,000  Level Cleveland Center
01:03PM 40.7547 -80.8983 304° West 405 466 28,000  Level Cleveland Center
01:04PM 40.8189 -81.0275 303° West 410 472 28,000  Level Cleveland Center
01:05PM 40.8744 -81.1569 300° West 410 472 28,000  Level Cleveland Center
01:06PM 40.9383 -81.2839 304° West 415 478 28,000  Level Cleveland Center
01:07PM 41.0044 -81.4086 305° West 422 486 28,000  Level Cleveland Center
01:08PM 41.0783 -81.5472 305° West 422 486 28,000  Level Cleveland Center
01:09PM 41.1419 -81.6556 308° West 422 486 28,000  Level Cleveland Center
01:10PM 41.2075 -81.7836 304° West 422 486 28,000 -780 Level Cleveland Center
01:11PM 41.2728 -81.9036 306° West 422 486 26,500 -1,860 Descending Cleveland Center
01:12PM 41.3358 -82.0211 306° West 407 468 24,300 -2,220 Descending Cleveland Center
01:13PM 41.3947 -82.1414 303° West 396 456 22,100 -2,220 Descending Cleveland Center
01:14PM 41.4536 -82.2564 304° West 390 449 19,900 -2,160 Descending Cleveland Center
01:15PM 41.5106 -82.3633 305° West 370 426 17,800 -2,280 Descending Cleveland Center
01:15PM 41.5469 -82.4308 306° West 354 407 16,400 -2,340 Descending Cleveland Center
01:16PM 41.5650 -82.4703 301° West 357 411 15,500 -2,400 Descending Cleveland Center
01:16PM 41.6033 -82.5436 305° West 345 397 14,000 -2,220 Descending Cleveland Center
01:17PM 41.6236 -82.5858 303° West 357 411 13,300 -1,680 Descending Cleveland Center
01:17PM 41.6600 -82.6481 308° West 340 391 12,300 -1,320 Descending Cleveland Center
01:18PM 41.6778 -82.6906 299° West 357 411 12,000 -300 Descending Cleveland Center
01:18PM 41.7122 -82.7528 307° West 344 396 12,000  Level Cleveland Center
01:19PM 41.7364 -82.7925 309° West 352 405 12,000  Level Cleveland Center
01:19PM 41.7792 -82.8469 317° Northwest 353 406 12,000  Level Cleveland Center
01:20PM 41.8078 -82.8786 320° Northwest 347 399 12,000  Level Cleveland Center
01:20PM 41.8625 -82.9475 317° Northwest 353 406 12,000  Level Cleveland Center
01:21PM 41.8808 -82.9678 321° Northwest 347 399 12,000  Level Cleveland Center
01:22PM 41.9542 -83.0542 319° Northwest 352 405 12,000 -540 Level Cleveland Center
01:22PM 42.0111 -83.1236 318° Northwest 346 398 11,100 -1,020 Descending Cleveland Center
01:23PM 42.0253 -83.1408 318° Northwest 352 405 11,000 -120 Descending Cleveland Center
01:23PM 42.0781 -83.2044 318° Northwest 328 377 11,000  Level Cleveland Center
01:24PM 42.0964 -83.2219 325° Northwest 347 399 11,000 -180 Level Cleveland Center
01:24PM 42.1428 -83.2364 347° North 326 375 10,900 -600 Descending FAA TRACON SMA TRACON (SMA)
01:24PM 42.1764 -83.2364 360° North 312 359 10,500 -1,680 Descending FAA TRACON SMA TRACON (SMA)
01:25PM 42.2006 -83.2242 21° North 319 367 9,800 -2,700 Descending FAA TRACON SMA TRACON (SMA)
01:25PM 42.2297 -83.2033 28° Northeast 325 374 8,700 -2,820 Descending FAA TRACON SMA TRACON (SMA)
01:25PM 42.2531 -83.1861 29° Northeast 309 356 7,900 -2,280 Descending FAA TRACON SMA TRACON (SMA)
01:26PM 42.2742 -83.1711 28° Northeast 307 353 7,200 -2,820 Descending FAA TRACON SMA TRACON (SMA)
01:26PM 42.3036 -83.1506 27° Northeast 295 339 6,100 -2,580 Descending FAA TRACON SMA TRACON (SMA)
01:26PM 42.3253 -83.1364 26° Northeast 286 329 5,500 -1,800 Descending FAA TRACON SMA TRACON (SMA)
01:27PM 42.3456 -83.1325 North 262 302 4,900 -1,800 Descending FAA TRACON SMA TRACON (SMA)
01:27PM 42.3686 -83.1511 329° Northwest 239 275 4,300 -1,320 Descending FAA TRACON SMA TRACON (SMA)
01:27PM 42.3786 -83.1708 304° West 223 257 4,000 -480 Descending FAA TRACON SMA TRACON (SMA)
01:28PM 42.3742 -83.1983 258° West 210 242 4,000  Level FAA TRACON SMA TRACON (SMA)
01:28PM 42.3625 -83.2203 234° Southwest 198 228 4,000  Level FAA TRACON SMA TRACON (SMA)
01:28PM 42.3517 -83.2344 224° Southwest 188 216 4,000 -600 Level FAA TRACON SMA TRACON (SMA)
01:29PM 42.3347 -83.2467 208° Southwest 194 223 3,600 -1,200 Descending FAA TRACON SMA TRACON (SMA)
01:29PM 42.3178 -83.2586 208° Southwest 192 221 3,200 -1,200 Descending FAA TRACON SMA TRACON (SMA)